Station Historical Data
Daily Summary for July 21, 2017 Units:  Metric    English   Both
« Previous Day
Next Day »
Daily Weekly Monthly Yearly Custom
  High: Low: Average:
Temperature: 29.3 °C 20.4 °C 24.9 °C
Dew Point: 23.1 °C 16.6 °C 21.1 °C
Humidity: 94% 60% 80%
Wind Speed: 20.9km/h 0km/h 4km/h
Wind Gust: 20.9km/h - -
Wind- - WSW
Pressure: 1013.1 hPa 1011.7 hPa -
Precipitation: 0 mm    
Historical Graphs
 
 
Tabular Data for July 21, 2017
Time Temperature Dew Point Pressure Wind Wind Speed Wind Gust Humidity Rainfall Rate (Hourly)
00:04 22.2 °C 21 °C 1012.4 hPa SSW 1.6 km/h 4.8 km/h 93% 0 mm
00:09 22.3 °C 21.1 °C 1012.4 hPa SSW 1.6 km/h 4.8 km/h 93% 0 mm
00:14 22.4 °C 21.2 °C 1012.4 hPa SW 1.6 km/h 6.4 km/h 93% 0 mm
00:19 22.4 °C 21.3 °C 1012.4 hPa Calm   4.8 km/h 93% 0 mm
00:24 22.6 °C 21.4 °C 1012.4 hPa SW 4.8 km/h 9.7 km/h 93% 0 mm
00:29 22.6 °C 21.4 °C 1012.4 hPa SW 6.4 km/h 6.4 km/h 93% 0 mm
00:34 22.7 °C 21.6 °C 1012.4 hPa SW 3.2 km/h 8 km/h 93% 0 mm
00:39 22.7 °C 21.6 °C 1012.4 hPa SW 1.6 km/h 8 km/h 93% 0 mm
00:44 22.7 °C 21.6 °C 1012.4 hPa WSW 1.6 km/h 6.4 km/h 93% 0 mm
00:49 22.8 °C 21.6 °C 1012.4 hPa West 3.2 km/h 9.7 km/h 93% 0 mm
00:54 22.8 °C 21.6 °C 1012.4 hPa WSW 4.8 km/h 8 km/h 93% 0 mm
00:59 22.8 °C 21.7 °C 1012.4 hPa WSW 4.8 km/h 11.3 km/h 93% 0 mm
01:04 22.8 °C 21.7 °C 1012.4 hPa WSW 4.8 km/h 11.3 km/h 93% 0 mm
01:09 22.8 °C 21.6 °C 1012.4 hPa WSW 3.2 km/h 8 km/h 93% 0 mm
01:14 22.8 °C 21.6 °C 1012.4 hPa WSW 1.6 km/h 8 km/h 93% 0 mm
01:19 22.7 °C 21.5 °C 1012.4 hPa SW 1.6 km/h 8 km/h 93% 0 mm
01:24 22.7 °C 21.5 °C 1012.4 hPa WSW 1.6 km/h 8 km/h 93% 0 mm
01:29 22.7 °C 21.5 °C 1012.4 hPa Calm   6.4 km/h 93% 0 mm
01:34 22.6 °C 21.4 °C 1012.4 hPa WSW 1.6 km/h 6.4 km/h 93% 0 mm
01:39 22.6 °C 21.4 °C 1012.4 hPa Calm   3.2 km/h 93% 0 mm
01:44 22.4 °C 21.3 °C 1012.4 hPa Calm     93% 0 mm
01:49 22.4 °C 21.3 °C 1012.4 hPa Calm   4.8 km/h 93% 0 mm
01:54 22.4 °C 21.2 °C 1012.4 hPa SW 1.6 km/h 6.4 km/h 93% 0 mm
01:59 22.4 °C 21.2 °C 1012.4 hPa Calm   3.2 km/h 93% 0 mm
02:04 22.3 °C 21.1 °C 1012.4 hPa Calm   4.8 km/h 93% 0 mm
02:09 22.3 °C 21.1 °C 1012.4 hPa WSW 1.6 km/h 4.8 km/h 93% 0 mm
02:14 22.2 °C 21 °C 1012.4 hPa Calm   3.2 km/h 93% 0 mm
02:19 22.1 °C 20.7 °C 1012.4 hPa Calm     92% 0 mm
02:24 22 °C 20.7 °C 1012.4 hPa Calm     92% 0 mm
02:29 21.9 °C 20.8 °C 1012.4 hPa Calm     93% 0 mm
02:34 21.8 °C 20.7 °C 1012.4 hPa Calm     93% 0 mm
02:39 21.8 °C 20.7 °C 1012.4 hPa Calm     93% 0 mm
02:44 21.7 °C 20.6 °C 1012.4 hPa Calm     93% 0 mm
02:49 21.8 °C 20.6 °C 1012.4 hPa Calm   6.4 km/h 93% 0 mm
02:54 21.9 °C 20.9 °C 1012.4 hPa Calm   3.2 km/h 94% 0 mm
02:59 22 °C 20.8 °C 1012.4 hPa Calm   3.2 km/h 93% 0 mm
03:04 22.2 °C 21 °C 1012.4 hPa Calm     93% 0 mm
03:09 22.2 °C 21.2 °C 1012.4 hPa Calm   6.4 km/h 94% 0 mm
03:14 22.3 °C 21.1 °C 1012.4 hPa Calm   6.4 km/h 93% 0 mm
03:19 22.2 °C 21.2 °C 1012.4 hPa Calm     94% 0 mm
03:24 22.2 °C 21.2 °C 1012.4 hPa Calm     94% 0 mm
03:29 22.3 °C 21.3 °C 1012.1 hPa Calm   3.2 km/h 94% 0 mm
03:34 22.3 °C 21.3 °C 1012.1 hPa Calm   3.2 km/h 94% 0 mm
03:39 22.2 °C 21.2 °C 1012.1 hPa Calm     94% 0 mm
03:44 22.1 °C 20.9 °C 1012.1 hPa Calm     93% 0 mm
03:49 22.2 °C 21.2 °C 1012.1 hPa Calm     94% 0 mm
03:54 22.2 °C 21.2 °C 1012.1 hPa Calm     94% 0 mm
03:59 22.3 °C 21.3 °C 1012.1 hPa Calm   6.4 km/h 94% 0 mm
04:04 22.4 °C 21.4 °C 1012.4 hPa Calm   4.8 km/h 94% 0 mm
04:09 22.3 °C 21.3 °C 1012.4 hPa WSW 4.8 km/h 4.8 km/h 94% 0 mm
04:14 22.3 °C 21.3 °C 1012.4 hPa Calm   4.8 km/h 94% 0 mm
04:19 22.4 °C 21.4 °C 1012.4 hPa Calm     94% 0 mm
04:24 22.3 °C 21.3 °C 1012.4 hPa Calm     94% 0 mm
04:29 22.3 °C 21.3 °C 1012.4 hPa Calm     94% 0 mm
04:34 22.3 °C 21.3 °C 1012.4 hPa Calm     94% 0 mm
04:39 22.3 °C 21.3 °C 1012.4 hPa Calm     94% 0 mm
04:44 22.3 °C 21.3 °C 1012.4 hPa Calm     94% 0 mm
04:49 22.2 °C 21.2 °C 1012.4 hPa Calm     94% 0 mm
04:54 22.1 °C 20.9 °C 1012.4 hPa Calm     93% 0 mm
04:59 21.9 °C 20.9 °C 1012.4 hPa Calm     94% 0 mm
05:04 21.9 °C 20.9 °C 1012.4 hPa Calm     94% 0 mm
05:09 21.9 °C 20.9 °C 1012.4 hPa Calm     94% 0 mm
05:14 21.7 °C 20.7 °C 1012.4 hPa Calm     94% 0 mm
05:19 21.6 °C 20.6 °C 1012.4 hPa Calm     94% 0 mm
05:24 21.4 °C 20.4 °C 1012.4 hPa Calm     94% 0 mm
05:29 21.3 °C 20.1 °C 1012.4 hPa Calm     93% 0 mm
05:34 21.1 °C 20.1 °C 1012.4 hPa Calm     94% 0 mm
05:39 21 °C 20 °C 1012.4 hPa Calm     94% 0 mm
05:44 21 °C 20 °C 1012.4 hPa Calm     94% 0 mm
05:49 20.8 °C 19.8 °C 1012.4 hPa Calm     94% 0 mm
05:54 20.7 °C 19.7 °C 1012.4 hPa Calm     94% 0 mm
05:59 20.7 °C 19.7 °C 1012.4 hPa Calm     94% 0 mm
06:04 20.6 °C 19.6 °C 1012.4 hPa Calm     94% 0 mm
06:09 20.5 °C 19.5 °C 1012.4 hPa Calm     94% 0 mm
06:14 20.4 °C 19.4 °C 1012.4 hPa Calm     94% 0 mm
06:19 20.4 °C 19.4 °C 1012.8 hPa Calm     94% 0 mm
06:24 20.4 °C 19.4 °C 1012.8 hPa Calm     94% 0 mm
06:29 20.4 °C 19.4 °C 1012.8 hPa Calm     94% 0 mm
06:34 20.4 °C 19.4 °C 1012.4 hPa Calm     94% 0 mm
06:39 20.5 °C 19.5 °C 1012.8 hPa Calm     94% 0 mm
06:44 20.7 °C 19.7 °C 1012.8 hPa Calm     94% 0 mm
06:49 20.7 °C 19.7 °C 1012.8 hPa Calm     94% 0 mm
06:54 20.8 °C 19.8 °C 1012.8 hPa Calm     94% 0 mm
06:59 20.9 °C 19.7 °C 1012.8 hPa Calm     93% 0 mm
07:04 21.1 °C 20.1 °C 1012.8 hPa Calm     94% 0 mm
07:09 21.2 °C 20.1 °C 1012.8 hPa Calm     93% 0 mm
07:14 21.3 °C 20.2 °C 1013.1 hPa Calm     93% 0 mm
07:19 21.4 °C 20.3 °C 1013.1 hPa Calm     93% 0 mm
07:24 21.6 °C 20.2 °C 1013.1 hPa Calm     92% 0 mm
07:29 21.7 °C 20.4 °C 1013.1 hPa Calm     92% 0 mm
07:34 21.9 °C 20.6 °C 1013.1 hPa Calm     92% 0 mm
07:39 22.2 °C 20.8 °C 1013.1 hPa Calm     92% 0 mm
07:44 22.4 °C 20.9 °C 1013.1 hPa Calm     91% 0 mm
07:49 22.7 °C 20.9 °C 1013.1 hPa SSE 1.6 km/h 4.8 km/h 90% 0 mm
07:54 22.8 °C 20.9 °C 1013.1 hPa SW 4.8 km/h 6.4 km/h 89% 0 mm
07:59 23 °C 21.1 °C 1013.1 hPa SSW 1.6 km/h 6.4 km/h 89% 0 mm
08:04 23.3 °C 21.2 °C 1013.1 hPa SSW 1.6 km/h 6.4 km/h 88% 0 mm
08:09 23.7 °C 21.6 °C 1013.1 hPa SW 3.2 km/h 9.7 km/h 88% 0 mm
08:14 24.2 °C 22.1 °C 1013.1 hPa SW 4.8 km/h 12.9 km/h 88% 0 mm
08:19 24.3 °C 22.1 °C 1013.1 hPa SW 4.8 km/h 12.9 km/h 87% 0 mm
08:24 24.7 °C 22.3 °C 1013.1 hPa SW 8 km/h 11.3 km/h 87% 0 mm
08:34 24.8 °C 22.1 °C 1013.1 hPa SSW 8 km/h 14.5 km/h 85% 0 mm
08:39 25 °C 22.1 °C 1013.1 hPa SW 6.4 km/h 11.3 km/h 84% 0 mm
08:44 25.3 °C 22.4 °C 1013.1 hPa West 4.8 km/h 12.9 km/h 84% 0 mm
08:49 25.3 °C 22.1 °C 1013.1 hPa WNW 11.3 km/h 11.3 km/h 82% 0 mm
08:54 25.4 °C 22.1 °C 1013.1 hPa WNW 3.2 km/h 12.9 km/h 82% 0 mm
08:59 25.2 °C 21.9 °C 1013.1 hPa West 4.8 km/h 12.9 km/h 82% 0 mm
09:04 25.1 °C 22 °C 1013.1 hPa West 4.8 km/h 11.3 km/h 83% 0 mm
09:09 25.3 °C 22 °C 1013.1 hPa WSW 6.4 km/h 11.3 km/h 82% 0 mm
09:14 25.8 °C 22.3 °C 1013.1 hPa WSW 6.4 km/h 11.3 km/h 81% 0 mm
09:19 25.5 °C 22 °C 1013.1 hPa SSW 4.8 km/h 11.3 km/h 81% 0 mm
09:24 25.5 °C 22 °C 1013.1 hPa WSW 4.8 km/h 11.3 km/h 81% 0 mm
09:29 25.4 °C 21.7 °C 1013.1 hPa WSW 6.4 km/h 11.3 km/h 80% 0 mm
09:34 25.1 °C 21.6 °C 1013.1 hPa SW 6.4 km/h 14.5 km/h 81% 0 mm
09:39 25 °C 21.7 °C 1013.1 hPa SW 6.4 km/h 14.5 km/h 82% 0 mm
09:44 24.8 °C 21.6 °C 1013.1 hPa WSW 6.4 km/h 12.9 km/h 82% 0 mm
09:49 24.8 °C 21.7 °C 1013.1 hPa SW 3.2 km/h 11.3 km/h 83% 0 mm
09:54 25.2 °C 21.9 °C 1013.1 hPa WSW 4.8 km/h 11.3 km/h 82% 0 mm
09:59 25.4 °C 22.2 °C 1013.1 hPa SW 6.4 km/h 11.3 km/h 82% 0 mm
10:04 26.3 °C 22.8 °C 1013.1 hPa SW 4.8 km/h 11.3 km/h 81% 0 mm
10:09 26.7 °C 22.9 °C 1013.1 hPa WSW 6.4 km/h 12.9 km/h 80% 0 mm
10:14 26.6 °C 22.7 °C 1013.1 hPa SW 9.7 km/h 12.9 km/h 79% 0 mm
10:19 26.5 °C 22.3 °C 1013.1 hPa WSW 8 km/h 12.9 km/h 78% 0 mm
10:24 26.6 °C 22.6 °C 1013.1 hPa SSW 6.4 km/h 14.5 km/h 79% 0 mm
10:29 26.8 °C 22.6 °C 1013.1 hPa SW 6.4 km/h 14.5 km/h 78% 0 mm
10:34 26.7 °C 22.6 °C 1013.1 hPa SW 6.4 km/h 14.5 km/h 78% 0 mm
10:39 26.4 °C 22.3 °C 1013.1 hPa WSW 6.4 km/h 14.5 km/h 78% 0 mm
10:44 27 °C 23.1 °C 1013.1 hPa WSW 6.4 km/h 12.9 km/h 79% 0 mm
10:49 27.3 °C 22.4 °C 1012.8 hPa SW 6.4 km/h 14.5 km/h 75% 0 mm
10:54 27.1 °C 22.2 °C 1013.1 hPa SW 6.4 km/h 12.9 km/h 75% 0 mm
10:59 26.7 °C 22.3 °C 1012.8 hPa SW 6.4 km/h 12.9 km/h 77% 0 mm
11:05 26.9 °C 22.6 °C 1012.8 hPa WSW 4.8 km/h 14.5 km/h 77% 0 mm
11:10 27 °C 22.6 °C 1012.8 hPa WSW 6.4 km/h 14.5 km/h 77% 0 mm
11:15 26.9 °C 22.6 °C 1013.1 hPa WSW 6.4 km/h 14.5 km/h 77% 0 mm
11:20 27.3 °C 22.7 °C 1013.1 hPa WSW 6.4 km/h 12.9 km/h 76% 0 mm
11:25 27.5 °C 22.9 °C 1013.1 hPa WSW 4.8 km/h 12.9 km/h 76% 0 mm
11:30 27.4 °C 22.8 °C 1012.8 hPa WSW 4.8 km/h 12.9 km/h 76% 0 mm
11:35 27.2 °C 22.6 °C 1012.8 hPa SSW 6.4 km/h 12.9 km/h 76% 0 mm
11:40 27.4 °C 22.6 °C 1012.8 hPa SW 6.4 km/h 12.9 km/h 75% 0 mm
11:45 27.9 °C 22.8 °C 1012.8 hPa WSW 6.4 km/h 12.9 km/h 74% 0 mm
11:50 28.2 °C 22.4 °C 1012.8 hPa West 6.4 km/h 14.5 km/h 71% 0 mm
11:55 28 °C 22.5 °C 1012.8 hPa West 8 km/h 17.7 km/h 72% 0 mm
12:00 28.2 °C 22.6 °C 1012.8 hPa West 6.4 km/h 17.7 km/h 72% 0 mm
12:05 27.9 °C 22.9 °C 1012.8 hPa West 4.8 km/h 17.7 km/h 74% 0 mm
12:10 28 °C 22.7 °C 1012.4 hPa WSW 6.4 km/h 14.5 km/h 73% 0 mm
12:15 28.1 °C 22.8 °C 1012.8 hPa SW 6.4 km/h 14.5 km/h 73% 0 mm
12:20 28.2 °C 22.2 °C 1012.4 hPa SW 8 km/h 16.1 km/h 70% 0 mm
12:25 28.2 °C 22.9 °C 1012.4 hPa SW 6.4 km/h 16.1 km/h 73% 0 mm
12:30 27.9 °C 22.4 °C 1012.4 hPa SW 6.4 km/h 16.1 km/h 72% 0 mm
12:35 27.7 °C 22.2 °C 1012.4 hPa West 8 km/h 16.1 km/h 72% 0 mm
12:40 28.3 °C 22.8 °C 1012.4 hPa WNW 6.4 km/h 14.5 km/h 72% 0 mm
12:45 28.4 °C 23.1 °C 1012.4 hPa WSW 6.4 km/h 16.1 km/h 73% 0 mm
12:50 28.3 °C 23 °C 1012.8 hPa SW 8 km/h 16.1 km/h 73% 0 mm
12:55 27.9 °C 22.7 °C 1012.4 hPa WSW 6.4 km/h 16.1 km/h 73% 0 mm
13:00 27.6 °C 22.3 °C 1012.4 hPa WSW 6.4 km/h 14.5 km/h 73% 0 mm
13:05 27.8 °C 23 °C 1012.4 hPa SW 8 km/h 16.1 km/h 75% 0 mm
13:10 28.3 °C 22.6 °C 1012.4 hPa WSW 8 km/h 17.7 km/h 71% 0 mm
13:15 28.6 °C 22.8 °C 1012.4 hPa WSW 9.7 km/h 19.3 km/h 71% 0 mm
13:20 28.7 °C 22.7 °C 1012.4 hPa WSW 6.4 km/h 19.3 km/h 70% 0 mm
13:25 27.9 °C 22.4 °C 1012.4 hPa WSW 6.4 km/h 19.3 km/h 72% 0 mm
13:30 27.5 °C 22.2 °C 1012.4 hPa WSW 8 km/h 16.1 km/h 73% 0 mm
13:35 27.5 °C 20.8 °C 1012.4 hPa SW 6.4 km/h 16.1 km/h 67% 0 mm
13:40 27.6 °C 20.7 °C 1012.4 hPa WSW 8 km/h 16.1 km/h 66% 0 mm
13:45 27.6 °C 21.7 °C 1012.4 hPa West 6.4 km/h 16.1 km/h 70% 0 mm
13:50 27.7 °C 20.8 °C 1012.4 hPa West 6.4 km/h 12.9 km/h 66% 0 mm
13:55 27.7 °C 22.2 °C 1012.4 hPa West 6.4 km/h 14.5 km/h 72% 0 mm
14:00 28.3 °C 22.6 °C 1012.4 hPa West 6.4 km/h 14.5 km/h 71% 0 mm
14:05 28.8 °C 22.1 °C 1012.4 hPa West 6.4 km/h 14.5 km/h 67% 0 mm
14:10 28.8 °C 21.6 °C 1012.4 hPa SW 8 km/h 14.5 km/h 65% 0 mm
14:15 29.3 °C 21.8 °C 1012.4 hPa WSW 8 km/h 14.5 km/h 64% 0 mm
14:20 29.1 °C 21.8 °C 1012.4 hPa WSW 8 km/h 16.1 km/h 65% 0 mm
14:25 28.8 °C 22.1 °C 1012.4 hPa SW 8 km/h 16.1 km/h 67% 0 mm
14:30 28.4 °C 21.7 °C 1012.4 hPa SW 4.8 km/h 16.1 km/h 67% 0 mm
14:35 28.2 °C 21.8 °C 1012.4 hPa WSW 4.8 km/h 16.1 km/h 68% 0 mm
14:40 28.2 °C 22.2 °C 1012.4 hPa WSW 6.4 km/h 12.9 km/h 70% 0 mm
14:45 29 °C 22.7 °C 1012.1 hPa SW 8 km/h 12.9 km/h 69% 0 mm
14:50 28.9 °C 22.4 °C 1012.1 hPa WSW 8 km/h 16.1 km/h 68% 0 mm
14:55 28.9 °C 22.4 °C 1012.1 hPa WSW 6.4 km/h 16.1 km/h 68% 0 mm
15:00 28.8 °C 21.3 °C 1012.1 hPa WSW 8 km/h 16.1 km/h 64% 0 mm
15:05 28.7 °C 21.4 °C 1012.1 hPa WSW 9.7 km/h 16.1 km/h 65% 0 mm
15:10 28.8 °C 22.5 °C 1012.4 hPa WSW 8 km/h 16.1 km/h 69% 0 mm
15:15 29 °C 22.5 °C 1012.4 hPa SW 8 km/h 16.1 km/h 68% 0 mm
15:20 28.9 °C 21.2 °C 1012.1 hPa WSW 8 km/h 16.1 km/h 63% 0 mm
15:25 28.8 °C 21.3 °C 1012.1 hPa SW 9.7 km/h 16.1 km/h 64% 0 mm
15:30 28.9 °C 21.7 °C 1012.1 hPa WSW 8 km/h 17.7 km/h 65% 0 mm
15:35 28.8 °C 21.6 °C 1012.1 hPa SW 9.7 km/h 20.9 km/h 65% 0 mm
15:40 28.3 °C 21.1 °C 1012.1 hPa SW 9.7 km/h 20.9 km/h 65% 0 mm
15:55 28.6 °C 22.1 °C 1011.7 hPa WSW 8 km/h 20.9 km/h 68% 0 mm
16:00 28.8 °C 21.8 °C 1012.1 hPa WSW 6.4 km/h 14.5 km/h 66% 0 mm
16:05 29.1 °C 21.8 °C 1012.1 hPa SW 9.7 km/h 16.1 km/h 65% 0 mm
16:10 28.8 °C 21.8 °C 1012.1 hPa SW 14.5 km/h 19.3 km/h 66% 0 mm
16:15 28.6 °C 21.9 °C 1012.1 hPa WSW 4.8 km/h 19.3 km/h 67% 0 mm
16:20 28.7 °C 21.5 °C 1011.7 hPa South 4.8 km/h 16.1 km/h 65% 0 mm
16:25 28.6 °C 21.9 °C 1011.7 hPa SW 9.7 km/h 19.3 km/h 67% 0 mm
16:30 28.8 °C 22.3 °C 1012.1 hPa SW 8 km/h 19.3 km/h 68% 0 mm
16:35 28.9 °C 22.2 °C 1012.1 hPa WSW 11.3 km/h 12.9 km/h 67% 0 mm
16:40 28.8 °C 21.8 °C 1011.7 hPa WSW 16.1 km/h 20.9 km/h 66% 0 mm
16:45 28.5 °C 21.6 °C 1011.7 hPa West 12.9 km/h 20.9 km/h 66% 0 mm
16:50 28.5 °C 21.6 °C 1011.7 hPa WSW 9.7 km/h 20.9 km/h 66% 0 mm
16:55 28.8 °C 21.3 °C 1012.1 hPa WSW 9.7 km/h 20.9 km/h 64% 0 mm
17:00 28.8 °C 21.1 °C 1012.1 hPa SW 20.9 km/h 20.9 km/h 63% 0 mm
17:05 28.7 °C 21.2 °C 1012.1 hPa WSW 9.7 km/h 20.9 km/h 64% 0 mm
17:10 28.6 °C 21.1 °C 1012.1 hPa WSW 9.7 km/h 20.9 km/h 64% 0 mm
17:15 28.4 °C 20.7 °C 1012.1 hPa WSW 9.7 km/h 20.9 km/h 63% 0 mm
17:20 28.3 °C 20.8 °C 1012.1 hPa SW 11.3 km/h 20.9 km/h 64% 0 mm
17:25 28.3 °C 20.3 °C 1012.1 hPa WSW 14.5 km/h 19.3 km/h 62% 0 mm
17:30 28.2 °C 20.2 °C 1012.1 hPa West 11.3 km/h 17.7 km/h 62% 0 mm
17:35 28.1 °C 19.9 °C 1012.1 hPa WSW 11.3 km/h 19.3 km/h 61% 0 mm
17:40 28.2 °C 20.2 °C 1011.7 hPa WSW 4.8 km/h 17.7 km/h 62% 0 mm
17:45 28.2 °C 19.7 °C 1011.7 hPa WSW 9.7 km/h 16.1 km/h 60% 0 mm
17:50 28.1 °C 19.8 °C 1011.7 hPa SW 6.4 km/h 16.1 km/h 61% 0 mm
17:55 28 °C 19.8 °C 1011.7 hPa WSW 8 km/h 19.3 km/h 61% 0 mm
18:00 28.1 °C 19.8 °C 1011.7 hPa WSW 8 km/h 19.3 km/h 61% 0 mm
18:05 28.1 °C 19.9 °C 1011.7 hPa WSW 8 km/h 16.1 km/h 61% 0 mm
18:10 27.9 °C 19.7 °C 1011.7 hPa WSW 8 km/h 17.7 km/h 61% 0 mm
18:15 27.8 °C 19.8 °C 1011.7 hPa WSW 8 km/h 17.7 km/h 62% 0 mm
18:20 27.8 °C 20.1 °C 1011.7 hPa SW 8 km/h 19.3 km/h 63% 0 mm
18:25 27.8 °C 19.9 °C 1011.7 hPa WSW 3.2 km/h 17.7 km/h 62% 0 mm
18:30 27.7 °C 19.7 °C 1011.7 hPa WSW 8 km/h 17.7 km/h 62% 0 mm
18:35 27.6 °C 19.4 °C 1011.7 hPa WSW 6.4 km/h 20.9 km/h 61% 0 mm
18:40 27.5 °C 19.3 °C 1011.7 hPa WSW 8 km/h 19.3 km/h 61% 0 mm
18:45 27.3 °C 19.7 °C 1011.7 hPa WSW 3.2 km/h 17.7 km/h 63% 0 mm
18:50 27.2 °C 19.6 °C 1011.7 hPa WSW 9.7 km/h 19.3 km/h 63% 0 mm
18:55 27.2 °C 19.5 °C 1011.7 hPa WSW 9.7 km/h 19.3 km/h 63% 0 mm
19:00 27.1 °C 20.2 °C 1011.7 hPa WSW 8 km/h 16.1 km/h 66% 0 mm
19:05 26.9 °C 20 °C 1011.7 hPa WSW 8 km/h 19.3 km/h 66% 0 mm
19:10 26.8 °C 19.9 °C 1011.7 hPa SW 6.4 km/h 17.7 km/h 66% 0 mm
19:15 26.6 °C 20.4 °C 1012.1 hPa WSW 9.7 km/h 17.7 km/h 69% 0 mm
19:20 26.4 °C 20.5 °C 1012.1 hPa WSW 3.2 km/h 12.9 km/h 70% 0 mm
19:25 26.3 °C 20.4 °C 1012.1 hPa WSW 8 km/h 14.5 km/h 70% 0 mm
19:30 26.3 °C 20.4 °C 1012.1 hPa West 9.7 km/h 14.5 km/h 70% 0 mm
19:35 26.3 °C 20.6 °C 1012.1 hPa WSW 4.8 km/h 16.1 km/h 71% 0 mm
19:40 26.3 °C 20.4 °C 1012.1 hPa West 4.8 km/h 16.1 km/h 70% 0 mm
19:45 26.3 °C 20.2 °C 1012.1 hPa WSW 6.4 km/h 16.1 km/h 69% 0 mm
19:50 26.3 °C 20.4 °C 1012.1 hPa WSW 4.8 km/h 9.7 km/h 70% 0 mm
19:55 26.2 °C 20.7 °C 1012.1 hPa WSW 3.2 km/h 9.7 km/h 72% 0 mm
20:00 26 °C 20.8 °C 1012.1 hPa SW 1.6 km/h 8 km/h 73% 0 mm
20:05 25.9 °C 20.7 °C 1012.1 hPa WSW 4.8 km/h 8 km/h 73% 0 mm
20:10 25.8 °C 21 °C 1012.1 hPa SW 1.6 km/h 9.7 km/h 75% 0 mm
20:15 25.6 °C 21 °C 1012.4 hPa SW 4.8 km/h 9.7 km/h 76% 0 mm
20:20 25.4 °C 20.9 °C 1012.4 hPa WSW 3.2 km/h 9.7 km/h 76% 0 mm
20:25 25.4 °C 20.7 °C 1012.4 hPa WNW 4.8 km/h 11.3 km/h 75% 0 mm
20:30 25.3 °C 20.4 °C 1012.4 hPa Calm   6.4 km/h 74% 0 mm
20:35 25.4 °C 20.2 °C 1012.1 hPa Calm   12.9 km/h 73% 0 mm
20:40 25.3 °C 20.3 °C 1012.1 hPa WSW 3.2 km/h 12.9 km/h 74% 0 mm
20:45 25.3 °C 20.1 °C 1012.1 hPa West 3.2 km/h 8 km/h 73% 0 mm
20:50 25.2 °C 20.3 °C 1012.1 hPa West 3.2 km/h 9.7 km/h 74% 0 mm
20:55 25.1 °C 20.4 °C 1012.1 hPa Calm   4.8 km/h 75% 0 mm
21:00 25 °C 20.3 °C 1012.1 hPa West 1.6 km/h 4.8 km/h 75% 0 mm
21:05 24.9 °C 20.2 °C 1012.1 hPa WNW 1.6 km/h 6.4 km/h 75% 0 mm
21:10 24.8 °C 20.3 °C 1012.1 hPa WNW 1.6 km/h 6.4 km/h 76% 0 mm
21:15 24.7 °C 20.2 °C 1012.1 hPa WNW 1.6 km/h 6.4 km/h 76% 0 mm
21:20 24.7 °C 20.4 °C 1012.1 hPa WNW 1.6 km/h 4.8 km/h 77% 0 mm
21:25 24.7 °C 20.4 °C 1012.1 hPa Calm   4.8 km/h 77% 0 mm
21:30 24.7 °C 20.4 °C 1012.1 hPa WNW 1.6 km/h 4.8 km/h 77% 0 mm
21:35 24.6 °C 20.3 °C 1012.1 hPa WNW 1.6 km/h 3.2 km/h 77% 0 mm
21:40 24.6 °C 20.3 °C 1012.1 hPa Calm   1.6 km/h 77% 0 mm
21:45 24.4 °C 20.3 °C 1012.1 hPa Calm     78% 0 mm
21:50 24.2 °C 20.3 °C 1012.1 hPa Calm     79% 0 mm
21:55 24.1 °C 20.2 °C 1012.4 hPa Calm     79% 0 mm
22:00 23.8 °C 20.2 °C 1012.4 hPa Calm     80% 0 mm
22:05 23.6 °C 20.2 °C 1012.4 hPa Calm     81% 0 mm
22:10 23.5 °C 20.1 °C 1012.1 hPa Calm     81% 0 mm
22:15 23.3 °C 20.1 °C 1012.1 hPa Calm     82% 0 mm
22:20 23.3 °C 20.2 °C 1012.1 hPa Calm     83% 0 mm
22:25 23.3 °C 20.2 °C 1012.4 hPa Calm     83% 0 mm
22:30 23.3 °C 20.2 °C 1012.4 hPa Calm     83% 0 mm
22:35 23.3 °C 20.1 °C 1012.4 hPa Calm     82% 0 mm
22:40 23.2 °C 19.9 °C 1012.4 hPa Calm     82% 0 mm
22:45 22.9 °C 19.9 °C 1012.4 hPa Calm     83% 0 mm
22:50 22.8 °C 19.7 °C 1012.4 hPa Calm     83% 0 mm
22:55 22.6 °C 19.8 °C 1012.4 hPa Calm     84% 0 mm
23:00 22.4 °C 19.6 °C 1012.4 hPa Calm     84% 0 mm
23:05 22.2 °C 19.6 °C 1012.4 hPa Calm     85% 0 mm
23:10 22.1 °C 19.4 °C 1012.4 hPa Calm     85% 0 mm
23:15 22 °C 19.6 °C 1012.4 hPa Calm     86% 0 mm
23:20 21.8 °C 19.2 °C 1012.4 hPa Calm     85% 0 mm
23:25 21.7 °C 19.3 °C 1012.4 hPa Calm     86% 0 mm
23:30 21.5 °C 19.1 °C 1012.4 hPa Calm     86% 0 mm
23:35 21.5 °C 19.1 °C 1012.4 hPa Calm     86% 0 mm
23:40 21.3 °C 18.7 °C 1012.4 hPa Calm     85% 0 mm
23:45 21.2 °C 18.2 °C 1012.4 hPa Calm     83% 0 mm
23:50 21.2 °C 17.2 °C 1012.8 hPa Calm     78% 0 mm
23:55 21.4 °C 16.6 °C 1012.8 hPa Calm   4.8 km/h 74% 0 mm
Buffalo, New York, USA
Compliments of Weather Underground - 2.5 mb